Main page
METAR-TAF:

METAR-TAF

Airports :

Mangaluru Airport

Mangalore, India

latitude: 12-55N, longitude: 074-53E, elevation: 102 m

Current weather observation

The report was made 44 minutes ago, at 04:00 UTC
Wind 7 kt from the East
Temperature 29°C
Humidity 62%
Pressure 1014 hPa
Visibility 10 km or more
Few clouds at a height of 1500 ft
Scattered clouds at a height of 9000 ft

METAR: VOML 150400Z 09007KT 9999 FEW015 SCT090 29/21 Q1014 NOSIG

Time: 10:14 (04:44 UTC)

Forecast

The report was made 2 hours and 44 minutes ago, at 02:00 UTC
Forecast valid from 15 at 03 UTC to 15 at 12 UTC
Wind 5 kt from the East
Visibility: 6000 m
Few clouds at a height of 1500 ft
Becoming
from 15 at 09 UTC to 15 at 10 UTC
Wind 10 kt from the West

TAF: VOML 150200Z 1503/1512 09005KT 6000 FEW015 BECMG 1509/1510 27010KT

Weather observations and forecasts of more than 4000 airports (METAR and TAF reports).

The available stations are represented by yellow and red dots on the map.

Hover mouse over dot to see the name of the station.

Then click to see weather observations and forecasts.

To change the map : click on the green buttons with a black cross to zoom in, on the green button with a dash to zoom out, or on the green arrows for adjacent maps.


METAR-TAF: